Culloden, Georgia
Current Conditions -  °F | °C
As of 7:35 AM on Saturday 20 Dec 2014 (Local Time) from KOPN Reporting Station
Moderate Rain Moderate Rain  
Wind Chill: 46°   Ceiling: 3800
Heat Index: 46°   Visibility: 4mi
Dew Point: 45°   Wind: 0mph
Humidity: 93%   Direction: NA
Pressure: 30.18"   Gusts: NA
Location:  32.86°N, 84.09°W
Report Text: KOPN 201235Z AUTO 00000KT 4SM RA BKN038 BKN044 OVC050 08/07 A3018 RMK AO2
Loading
Personal Weather Stations






























Interactive Weather Map New forecast layout! Learn more

10-Day Weather Forecast

Advertisements
Track Severe Weather on mobile